Hauptseite
METAR-TAF:

METAR-TAF

Flughäfen :

Flughafen Engadin

St. Moritz, Schweiz

Breite: 46-32-03N, Länge: 9-53-03E, Höhe: 1707 m

Beobachtung

Neuester Wetterbericht von vor 34 Minuten, um 01:50 UTC
Wind 1 kt aus unterschiedlichen Richtungen
Temperatur -6°C
Luftfeuchtigkeit 86%
Luftdruck 1020 hPa
Sichtweite 10 km oder mehr
Leicht bewölkt in der Höhe von 2500 ft

METAR: LSZS 180150Z AUTO VRB01KT 9999 FEW025 M06/M08 Q1020 RESN

Zeit: 03:24 (02:24 UTC)

Prognose

Neuester Wetterbericht von vor 11 Stunden und 59 Minuten, um 14:25 UTC
Gültige Prognose vom 17 um 15 UTC bis 17 um 24 UTC
Wind 5 kt aus Süd/Südwest
Sichtweite 10 km oder mehr
Leicht bewölkt in der Höhe von 4600 ft
Zeitweise
vom 17 um 15 UTC bis 17 um 24 UTC
Sichtweite 10 km oder mehr
keine Wolken unter 1500 m und keine Kumulonimbus oder Gewitterwolken

TAF: LSZS 171425Z 1715/1724 21005KT 9999 FEW046 TX02/1714Z TEMPO 1715/1724 CAVOK

Wetterbeobachtungen und Prognosen von mehr als 4000 Flughäfen (METAR und TAF Bericht).

Die verfügbaren Stationen werden durch gelbe und rote Markierungen auf der Karte dargestellt.

Führen Sie die Maus auf sie, um den Namen der Station zu sehen.

Darauf klicken, um die Beobachtung von Wetterbeobachtungen und Prognosen zu sehen.

Um die Karte zu ändern : klicken Sie auf den grünen Tasten mit einem schwarzen Kreuz Zum Vergrößern, auf den grünen Button mit einem Gedankenstrich zu verkleinern, oder auf die grünen Pfeile für benachbarte Karten.


METAR-TAF: